sensor_id;sensor_type;location;lat;lon;timestamp;temperature;humidity
10530;DHT22;5313;48.834;9.228;2023-11-22T00:00:50;7.10;99.90
10530;DHT22;5313;48.834;9.228;2023-11-22T00:03:15;6.80;99.90
10530;DHT22;5313;48.834;9.228;2023-11-22T00:05:41;6.60;99.90
10530;DHT22;5313;48.834;9.228;2023-11-22T00:08:06;6.50;99.90
10530;DHT22;5313;48.834;9.228;2023-11-22T00:10:32;6.40;99.90
10530;DHT22;5313;48.834;9.228;2023-11-22T00:12:57;6.30;99.90
10530;DHT22;5313;48.834;9.228;2023-11-22T00:15:24;6.20;99.90
10530;DHT22;5313;48.834;9.228;2023-11-22T00:17:49;6.10;99.90
10530;DHT22;5313;48.834;9.228;2023-11-22T00:20:15;6.10;99.90
10530;DHT22;5313;48.834;9.228;2023-11-22T00:22:43;6.10;99.90
10530;DHT22;5313;48.834;9.228;2023-11-22T00:25:10;6.10;99.90
10530;DHT22;5313;48.834;9.228;2023-11-22T00:27:38;6.10;99.90
10530;DHT22;5313;48.834;9.228;2023-11-22T00:30:04;6.10;99.90
10530;DHT22;5313;48.834;9.228;2023-11-22T00:32:30;6.10;99.90
10530;DHT22;5313;48.834;9.228;2023-11-22T00:34:56;6.00;99.90
10530;DHT22;5313;48.834;9.228;2023-11-22T00:37:22;6.00;99.90
10530;DHT22;5313;48.834;9.228;2023-11-22T00:39:48;6.00;99.90
10530;DHT22;5313;48.834;9.228;2023-11-22T00:42:14;6.00;99.90
10530;DHT22;5313;48.834;9.228;2023-11-22T00:44:39;5.90;99.90
10530;DHT22;5313;48.834;9.228;2023-11-22T00:47:05;5.80;99.90
10530;DHT22;5313;48.834;9.228;2023-11-22T00:49:31;5.80;99.90
10530;DHT22;5313;48.834;9.228;2023-11-22T00:51:57;5.80;99.90
10530;DHT22;5313;48.834;9.228;2023-11-22T00:54:23;5.80;99.90
10530;DHT22;5313;48.834;9.228;2023-11-22T00:56:50;5.80;99.90
10530;DHT22;5313;48.834;9.228;2023-11-22T00:59:15;5.80;99.90
10530;DHT22;5313;48.834;9.228;2023-11-22T01:01:41;5.70;99.90
10530;DHT22;5313;48.834;9.228;2023-11-22T01:04:07;5.70;99.90
10530;DHT22;5313;48.834;9.228;2023-11-22T01:06:33;5.60;99.90
10530;DHT22;5313;48.834;9.228;2023-11-22T01:08:58;5.50;99.90
10530;DHT22;5313;48.834;9.228;2023-11-22T01:11:24;5.50;99.90
10530;DHT22;5313;48.834;9.228;2023-11-22T01:13:49;5.40;99.90
10530;DHT22;5313;48.834;9.228;2023-11-22T01:16:15;5.40;99.90
10530;DHT22;5313;48.834;9.228;2023-11-22T01:18:41;5.30;99.90
10530;DHT22;5313;48.834;9.228;2023-11-22T01:21:06;5.30;99.90
10530;DHT22;5313;48.834;9.228;2023-11-22T01:23:33;5.40;99.90
10530;DHT22;5313;48.834;9.228;2023-11-22T01:25:59;5.30;99.90
10530;DHT22;5313;48.834;9.228;2023-11-22T01:28:28;5.30;99.90
10530;DHT22;5313;48.834;9.228;2023-11-22T01:30:54;5.30;99.90
10530;DHT22;5313;48.834;9.228;2023-11-22T01:33:23;5.30;99.90
10530;DHT22;5313;48.834;9.228;2023-11-22T01:35:49;5.30;99.90
10530;DHT22;5313;48.834;9.228;2023-11-22T01:38:18;5.20;99.90
10530;DHT22;5313;48.834;9.228;2023-11-22T01:40:47;5.20;99.90
10530;DHT22;5313;48.834;9.228;2023-11-22T01:43:17;5.20;99.90
10530;DHT22;5313;48.834;9.228;2023-11-22T01:45:43;5.20;99.90
10530;DHT22;5313;48.834;9.228;2023-11-22T01:48:10;5.10;99.90
10530;DHT22;5313;48.834;9.228;2023-11-22T01:50:40;5.10;99.90
10530;DHT22;5313;48.834;9.228;2023-11-22T01:53:08;5.10;99.90
10530;DHT22;5313;48.834;9.228;2023-11-22T01:55:35;5.00;99.90
10530;DHT22;5313;48.834;9.228;2023-11-22T01:58:01;4.90;99.90
10530;DHT22;5313;48.834;9.228;2023-11-22T02:00:32;4.90;99.90
10530;DHT22;5313;48.834;9.228;2023-11-22T02:03:00;4.90;99.90
10530;DHT22;5313;48.834;9.228;2023-11-22T02:05:26;4.90;99.90
10530;DHT22;5313;48.834;9.228;2023-11-22T02:07:52;4.90;99.90
10530;DHT22;5313;48.834;9.228;2023-11-22T02:10:17;4.90;99.90
10530;DHT22;5313;48.834;9.228;2023-11-22T02:12:43;4.90;99.90
10530;DHT22;5313;48.834;9.228;2023-11-22T02:15:09;4.90;99.90
10530;DHT22;5313;48.834;9.228;2023-11-22T02:17:34;4.90;99.90
10530;DHT22;5313;48.834;9.228;2023-11-22T02:20:01;4.80;99.90
10530;DHT22;5313;48.834;9.228;2023-11-22T02:22:26;4.80;99.90
10530;DHT22;5313;48.834;9.228;2023-11-22T02:24:52;4.80;99.90
10530;DHT22;5313;48.834;9.228;2023-11-22T02:27:17;4.80;99.90
10530;DHT22;5313;48.834;9.228;2023-11-22T02:29:44;4.80;99.90
10530;DHT22;5313;48.834;9.228;2023-11-22T02:32:10;4.70;99.90
10530;DHT22;5313;48.834;9.228;2023-11-22T02:34:36;4.70;99.90
10530;DHT22;5313;48.834;9.228;2023-11-22T02:37:01;4.70;99.90
10530;DHT22;5313;48.834;9.228;2023-11-22T02:39:35;4.70;99.90
10530;DHT22;5313;48.834;9.228;2023-11-22T02:42:02;4.70;99.90
10530;DHT22;5313;48.834;9.228;2023-11-22T02:44:29;4.70;99.90
10530;DHT22;5313;48.834;9.228;2023-11-22T02:46:54;4.60;99.90
10530;DHT22;5313;48.834;9.228;2023-11-22T02:49:20;4.70;99.90
10530;DHT22;5313;48.834;9.228;2023-11-22T02:51:45;4.60;99.90
10530;DHT22;5313;48.834;9.228;2023-11-22T02:54:11;4.60;99.90
10530;DHT22;5313;48.834;9.228;2023-11-22T02:56:37;4.50;99.90
10530;DHT22;5313;48.834;9.228;2023-11-22T02:59:03;4.60;99.90
10530;DHT22;5313;48.834;9.228;2023-11-22T03:01:28;4.50;99.90
10530;DHT22;5313;48.834;9.228;2023-11-22T03:03:54;4.50;99.90
10530;DHT22;5313;48.834;9.228;2023-11-22T03:06:19;4.50;99.90
10530;DHT22;5313;48.834;9.228;2023-11-22T03:08:45;4.50;99.90
10530;DHT22;5313;48.834;9.228;2023-11-22T03:11:10;4.50;99.90
10530;DHT22;5313;48.834;9.228;2023-11-22T03:13:36;4.50;99.90
10530;DHT22;5313;48.834;9.228;2023-11-22T03:16:01;4.40;99.90
10530;DHT22;5313;48.834;9.228;2023-11-22T03:18:29;4.30;99.90
10530;DHT22;5313;48.834;9.228;2023-11-22T03:20:54;4.40;99.90
10530;DHT22;5313;48.834;9.228;2023-11-22T03:23:20;4.40;99.90
10530;DHT22;5313;48.834;9.228;2023-11-22T03:25:46;4.40;99.90
10530;DHT22;5313;48.834;9.228;2023-11-22T03:28:12;4.30;99.90
10530;DHT22;5313;48.834;9.228;2023-11-22T03:30:38;4.40;99.90
10530;DHT22;5313;48.834;9.228;2023-11-22T03:33:04;4.40;99.90
10530;DHT22;5313;48.834;9.228;2023-11-22T03:35:30;4.40;99.90
10530;DHT22;5313;48.834;9.228;2023-11-22T03:37:56;4.30;99.90
10530;DHT22;5313;48.834;9.228;2023-11-22T03:40:22;4.30;99.90
10530;DHT22;5313;48.834;9.228;2023-11-22T03:42:47;4.30;99.90
10530;DHT22;5313;48.834;9.228;2023-11-22T03:45:13;4.30;99.90
10530;DHT22;5313;48.834;9.228;2023-11-22T03:47:39;4.40;99.90
10530;DHT22;5313;48.834;9.228;2023-11-22T03:50:06;4.40;99.90
10530;DHT22;5313;48.834;9.228;2023-11-22T03:52:32;4.30;99.90
10530;DHT22;5313;48.834;9.228;2023-11-22T03:54:57;4.40;99.90
10530;DHT22;5313;48.834;9.228;2023-11-22T03:57:23;4.50;99.90
10530;DHT22;5313;48.834;9.228;2023-11-22T03:59:49;4.40;99.90
10530;DHT22;5313;48.834;9.228;2023-11-22T04:02:14;4.40;99.90
10530;DHT22;5313;48.834;9.228;2023-11-22T04:04:40;4.40;99.90
10530;DHT22;5313;48.834;9.228;2023-11-22T04:07:07;4.40;99.90
10530;DHT22;5313;48.834;9.228;2023-11-22T04:09:33;4.40;99.90
10530;DHT22;5313;48.834;9.228;2023-11-22T04:11:58;4.40;99.90
10530;DHT22;5313;48.834;9.228;2023-11-22T04:14:24;4.40;99.90
10530;DHT22;5313;48.834;9.228;2023-11-22T04:16:49;4.30;99.90
10530;DHT22;5313;48.834;9.228;2023-11-22T04:19:21;4.30;99.90
10530;DHT22;5313;48.834;9.228;2023-11-22T04:21:46;4.30;99.90
10530;DHT22;5313;48.834;9.228;2023-11-22T04:24:12;4.40;99.90
10530;DHT22;5313;48.834;9.228;2023-11-22T04:26:38;4.40;99.90
10530;DHT22;5313;48.834;9.228;2023-11-22T04:29:04;4.40;99.90
10530;DHT22;5313;48.834;9.228;2023-11-22T04:31:30;4.30;99.90
10530;DHT22;5313;48.834;9.228;2023-11-22T04:33:55;4.40;99.90
10530;DHT22;5313;48.834;9.228;2023-11-22T04:36:23;4.40;99.90
10530;DHT22;5313;48.834;9.228;2023-11-22T04:38:48;4.40;99.90
10530;DHT22;5313;48.834;9.228;2023-11-22T04:41:15;4.30;99.90
10530;DHT22;5313;48.834;9.228;2023-11-22T04:43:41;4.30;99.90
10530;DHT22;5313;48.834;9.228;2023-11-22T04:46:07;4.30;99.90
10530;DHT22;5313;48.834;9.228;2023-11-22T04:48:34;4.30;99.90
10530;DHT22;5313;48.834;9.228;2023-11-22T04:50:59;4.30;99.90
10530;DHT22;5313;48.834;9.228;2023-11-22T04:53:25;4.30;99.90
10530;DHT22;5313;48.834;9.228;2023-11-22T04:55:50;4.40;99.90
10530;DHT22;5313;48.834;9.228;2023-11-22T04:58:16;4.30;99.90
10530;DHT22;5313;48.834;9.228;2023-11-22T05:00:41;4.30;99.90
10530;DHT22;5313;48.834;9.228;2023-11-22T05:03:07;4.30;99.90
10530;DHT22;5313;48.834;9.228;2023-11-22T05:05:33;4.20;99.90
10530;DHT22;5313;48.834;9.228;2023-11-22T05:07:58;4.20;99.90
10530;DHT22;5313;48.834;9.228;2023-11-22T05:10:24;4.20;99.90
10530;DHT22;5313;48.834;9.228;2023-11-22T05:12:49;4.20;99.90
10530;DHT22;5313;48.834;9.228;2023-11-22T05:15:15;4.20;99.90
10530;DHT22;5313;48.834;9.228;2023-11-22T05:17:40;4.10;99.90
10530;DHT22;5313;48.834;9.228;2023-11-22T05:20:07;4.20;99.90
10530;DHT22;5313;48.834;9.228;2023-11-22T05:22:35;4.20;99.90
10530;DHT22;5313;48.834;9.228;2023-11-22T05:25:01;4.20;99.90
10530;DHT22;5313;48.834;9.228;2023-11-22T05:27:26;4.10;99.90
10530;DHT22;5313;48.834;9.228;2023-11-22T05:29:53;4.20;99.90
10530;DHT22;5313;48.834;9.228;2023-11-22T05:32:19;4.20;99.90
10530;DHT22;5313;48.834;9.228;2023-11-22T05:34:45;4.20;99.90
10530;DHT22;5313;48.834;9.228;2023-11-22T05:37:10;4.10;99.90
10530;DHT22;5313;48.834;9.228;2023-11-22T05:39:36;4.10;99.90
10530;DHT22;5313;48.834;9.228;2023-11-22T05:42:02;4.00;99.90
10530;DHT22;5313;48.834;9.228;2023-11-22T05:44:28;4.10;99.90
10530;DHT22;5313;48.834;9.228;2023-11-22T05:46:54;4.10;99.90
10530;DHT22;5313;48.834;9.228;2023-11-22T05:49:20;4.10;99.90
10530;DHT22;5313;48.834;9.228;2023-11-22T05:51:45;4.00;99.90
10530;DHT22;5313;48.834;9.228;2023-11-22T05:54:11;4.00;99.90
10530;DHT22;5313;48.834;9.228;2023-11-22T05:56:38;4.00;99.90
10530;DHT22;5313;48.834;9.228;2023-11-22T05:59:03;4.00;99.90
10530;DHT22;5313;48.834;9.228;2023-11-22T06:01:29;4.00;99.90
10530;DHT22;5313;48.834;9.228;2023-11-22T06:03:55;4.00;99.90
10530;DHT22;5313;48.834;9.228;2023-11-22T06:06:21;4.00;99.90
10530;DHT22;5313;48.834;9.228;2023-11-22T06:08:48;4.00;99.90
10530;DHT22;5313;48.834;9.228;2023-11-22T06:11:14;4.00;99.90
10530;DHT22;5313;48.834;9.228;2023-11-22T06:13:41;4.00;99.90
10530;DHT22;5313;48.834;9.228;2023-11-22T06:16:08;4.00;99.90
10530;DHT22;5313;48.834;9.228;2023-11-22T06:18:34;4.00;99.90
10530;DHT22;5313;48.834;9.228;2023-11-22T06:21:08;4.00;99.90
10530;DHT22;5313;48.834;9.228;2023-11-22T06:23:34;3.90;99.90
10530;DHT22;5313;48.834;9.228;2023-11-22T06:25:59;1.80;99.90
10530;DHT22;5313;48.834;9.228;2023-11-22T06:28:25;3.90;99.90
10530;DHT22;5313;48.834;9.228;2023-11-22T06:30:51;3.90;99.90
10530;DHT22;5313;48.834;9.228;2023-11-22T06:33:16;4.00;99.90
10530;DHT22;5313;48.834;9.228;2023-11-22T06:35:42;4.00;99.90
10530;DHT22;5313;48.834;9.228;2023-11-22T06:38:08;4.00;99.90
10530;DHT22;5313;48.834;9.228;2023-11-22T06:40:34;3.90;99.90
10530;DHT22;5313;48.834;9.228;2023-11-22T06:42:59;3.90;99.90
10530;DHT22;5313;48.834;9.228;2023-11-22T06:45:25;3.90;99.90
10530;DHT22;5313;48.834;9.228;2023-11-22T06:47:50;3.90;99.90
10530;DHT22;5313;48.834;9.228;2023-11-22T06:50:16;3.80;99.90
10530;DHT22;5313;48.834;9.228;2023-11-22T06:52:42;3.90;99.90
10530;DHT22;5313;48.834;9.228;2023-11-22T06:55:09;3.80;99.90
10530;DHT22;5313;48.834;9.228;2023-11-22T06:57:35;3.70;99.90
10530;DHT22;5313;48.834;9.228;2023-11-22T07:00:01;3.70;99.90
10530;DHT22;5313;48.834;9.228;2023-11-22T07:02:33;3.70;99.90
10530;DHT22;5313;48.834;9.228;2023-11-22T07:05:03;3.60;99.90
10530;DHT22;5313;48.834;9.228;2023-11-22T07:07:29;3.60;99.90
10530;DHT22;5313;48.834;9.228;2023-11-22T07:09:55;3.60;99.90
10530;DHT22;5313;48.834;9.228;2023-11-22T07:12:27;3.60;99.90
10530;DHT22;5313;48.834;9.228;2023-11-22T07:14:53;3.60;99.90
10530;DHT22;5313;48.834;9.228;2023-11-22T07:17:18;3.60;99.90
10530;DHT22;5313;48.834;9.228;2023-11-22T07:19:44;3.50;99.90
10530;DHT22;5313;48.834;9.228;2023-11-22T07:22:14;3.50;99.90
10530;DHT22;5313;48.834;9.228;2023-11-22T07:24:43;3.50;99.90
10530;DHT22;5313;48.834;9.228;2023-11-22T07:27:10;3.50;99.90
10530;DHT22;5313;48.834;9.228;2023-11-22T07:29:39;3.50;99.90
10530;DHT22;5313;48.834;9.228;2023-11-22T07:32:05;3.50;99.90
10530;DHT22;5313;48.834;9.228;2023-11-22T07:34:31;3.50;99.90
10530;DHT22;5313;48.834;9.228;2023-11-22T07:36:56;3.50;99.90
10530;DHT22;5313;48.834;9.228;2023-11-22T07:39:22;3.50;99.90
10530;DHT22;5313;48.834;9.228;2023-11-22T07:41:53;3.40;99.90
10530;DHT22;5313;48.834;9.228;2023-11-22T07:44:20;3.40;99.90
10530;DHT22;5313;48.834;9.228;2023-11-22T07:46:46;3.30;99.90
10530;DHT22;5313;48.834;9.228;2023-11-22T07:49:12;3.30;99.90
10530;DHT22;5313;48.834;9.228;2023-11-22T07:51:39;3.30;99.90
10530;DHT22;5313;48.834;9.228;2023-11-22T07:54:05;3.40;99.90
10530;DHT22;5313;48.834;9.228;2023-11-22T07:56:31;3.30;99.90
10530;DHT22;5313;48.834;9.228;2023-11-22T07:58:58;3.40;99.90
10530;DHT22;5313;48.834;9.228;2023-11-22T08:01:23;3.30;99.90
10530;DHT22;5313;48.834;9.228;2023-11-22T08:03:51;3.20;99.90
10530;DHT22;5313;48.834;9.228;2023-11-22T08:06:17;3.20;99.90
10530;DHT22;5313;48.834;9.228;2023-11-22T08:08:43;3.20;99.90
10530;DHT22;5313;48.834;9.228;2023-11-22T08:11:11;3.10;99.90
10530;DHT22;5313;48.834;9.228;2023-11-22T08:13:41;3.10;99.90
10530;DHT22;5313;48.834;9.228;2023-11-22T08:16:08;3.10;99.90
10530;DHT22;5313;48.834;9.228;2023-11-22T08:18:34;3.20;99.90
10530;DHT22;5313;48.834;9.228;2023-11-22T08:21:00;3.00;99.90
10530;DHT22;5313;48.834;9.228;2023-11-22T08:23:25;3.10;99.90
10530;DHT22;5313;48.834;9.228;2023-11-22T08:25:52;3.00;99.90
10530;DHT22;5313;48.834;9.228;2023-11-22T08:28:18;3.00;99.90
10530;DHT22;5313;48.834;9.228;2023-11-22T08:30:44;2.90;99.90
10530;DHT22;5313;48.834;9.228;2023-11-22T08:33:10;2.90;99.90
10530;DHT22;5313;48.834;9.228;2023-11-22T08:35:35;2.90;99.90
10530;DHT22;5313;48.834;9.228;2023-11-22T08:38:01;2.90;99.90
10530;DHT22;5313;48.834;9.228;2023-11-22T08:40:28;2.80;99.90
10530;DHT22;5313;48.834;9.228;2023-11-22T08:42:54;2.80;99.90
10530;DHT22;5313;48.834;9.228;2023-11-22T08:45:20;2.80;99.90
10530;DHT22;5313;48.834;9.228;2023-11-22T08:47:46;2.80;99.90
10530;DHT22;5313;48.834;9.228;2023-11-22T08:50:11;2.80;99.90
10530;DHT22;5313;48.834;9.228;2023-11-22T08:52:40;2.80;99.90
10530;DHT22;5313;48.834;9.228;2023-11-22T08:55:07;2.90;99.90
10530;DHT22;5313;48.834;9.228;2023-11-22T08:57:36;2.80;99.90
10530;DHT22;5313;48.834;9.228;2023-11-22T09:00:06;2.80;99.90
10530;DHT22;5313;48.834;9.228;2023-11-22T09:02:35;2.90;99.90
10530;DHT22;5313;48.834;9.228;2023-11-22T09:05:04;2.90;99.90
10530;DHT22;5313;48.834;9.228;2023-11-22T09:07:33;2.80;99.90
10530;DHT22;5313;48.834;9.228;2023-11-22T09:10:01;2.80;99.90
10530;DHT22;5313;48.834;9.228;2023-11-22T09:12:26;2.80;99.90
10530;DHT22;5313;48.834;9.228;2023-11-22T09:14:52;2.90;99.90
10530;DHT22;5313;48.834;9.228;2023-11-22T09:17:18;2.90;99.90
10530;DHT22;5313;48.834;9.228;2023-11-22T09:19:44;3.00;99.90
10530;DHT22;5313;48.834;9.228;2023-11-22T09:22:10;3.00;99.90
10530;DHT22;5313;48.834;9.228;2023-11-22T09:24:36;3.10;99.90
10530;DHT22;5313;48.834;9.228;2023-11-22T09:27:02;3.00;99.90
10530;DHT22;5313;48.834;9.228;2023-11-22T09:29:31;3.00;99.90
10530;DHT22;5313;48.834;9.228;2023-11-22T09:31:56;3.00;99.90
10530;DHT22;5313;48.834;9.228;2023-11-22T09:34:22;3.00;99.90
10530;DHT22;5313;48.834;9.228;2023-11-22T09:36:47;3.10;99.90
10530;DHT22;5313;48.834;9.228;2023-11-22T09:39:13;3.00;99.90
10530;DHT22;5313;48.834;9.228;2023-11-22T09:41:38;3.00;99.90
10530;DHT22;5313;48.834;9.228;2023-11-22T09:44:04;3.10;99.90
10530;DHT22;5313;48.834;9.228;2023-11-22T09:46:31;3.10;99.90
10530;DHT22;5313;48.834;9.228;2023-11-22T09:49:00;3.00;99.90
10530;DHT22;5313;48.834;9.228;2023-11-22T09:51:29;3.10;99.90
10530;DHT22;5313;48.834;9.228;2023-11-22T09:53:59;3.10;99.90
10530;DHT22;5313;48.834;9.228;2023-11-22T09:56:27;3.20;99.90
10530;DHT22;5313;48.834;9.228;2023-11-22T09:58:54;3.20;99.90
10530;DHT22;5313;48.834;9.228;2023-11-22T10:01:22;3.30;99.90
10530;DHT22;5313;48.834;9.228;2023-11-22T10:03:48;3.30;99.90
10530;DHT22;5313;48.834;9.228;2023-11-22T10:06:14;3.40;99.90
10530;DHT22;5313;48.834;9.228;2023-11-22T10:08:41;3.40;99.90
10530;DHT22;5313;48.834;9.228;2023-11-22T10:11:07;3.30;99.90
10530;DHT22;5313;48.834;9.228;2023-11-22T10:13:33;3.20;99.90
10530;DHT22;5313;48.834;9.228;2023-11-22T10:16:16;3.20;99.90
10530;DHT22;5313;48.834;9.228;2023-11-22T10:18:43;3.20;99.90
10530;DHT22;5313;48.834;9.228;2023-11-22T10:23:44;3.20;99.90
10530;DHT22;5313;48.834;9.228;2023-11-22T10:26:10;3.30;99.90
10530;DHT22;5313;48.834;9.228;2023-11-22T10:28:35;3.30;99.90
10530;DHT22;5313;48.834;9.228;2023-11-22T10:31:07;3.40;99.90
10530;DHT22;5313;48.834;9.228;2023-11-22T10:33:32;3.30;99.90
10530;DHT22;5313;48.834;9.228;2023-11-22T10:35:58;3.40;99.90
10530;DHT22;5313;48.834;9.228;2023-11-22T10:38:23;3.40;99.90
10530;DHT22;5313;48.834;9.228;2023-11-22T10:40:49;3.50;99.90
10530;DHT22;5313;48.834;9.228;2023-11-22T10:43:17;3.60;99.90
10530;DHT22;5313;48.834;9.228;2023-11-22T10:45:44;3.60;99.90
10530;DHT22;5313;48.834;9.228;2023-11-22T10:48:17;3.60;99.90
10530;DHT22;5313;48.834;9.228;2023-11-22T10:50:46;3.60;99.90
10530;DHT22;5313;48.834;9.228;2023-11-22T10:53:16;3.60;99.90
10530;DHT22;5313;48.834;9.228;2023-11-22T10:55:48;3.60;99.90
10530;DHT22;5313;48.834;9.228;2023-11-22T10:58:18;3.70;99.90
10530;DHT22;5313;48.834;9.228;2023-11-22T11:00:46;3.70;99.90
10530;DHT22;5313;48.834;9.228;2023-11-22T11:03:14;3.70;99.90
10530;DHT22;5313;48.834;9.228;2023-11-22T11:05:52;3.80;99.90
10530;DHT22;5313;48.834;9.228;2023-11-22T11:08:20;3.90;99.90
10530;DHT22;5313;48.834;9.228;2023-11-22T11:10:47;3.90;99.90
10530;DHT22;5313;48.834;9.228;2023-11-22T11:13:15;3.90;99.90
10530;DHT22;5313;48.834;9.228;2023-11-22T11:15:43;3.80;99.90
10530;DHT22;5313;48.834;9.228;2023-11-22T11:18:13;3.70;99.90
10530;DHT22;5313;48.834;9.228;2023-11-22T11:21:08;3.70;99.90
10530;DHT22;5313;48.834;9.228;2023-11-22T11:23:39;3.70;99.90
10530;DHT22;5313;48.834;9.228;2023-11-22T11:26:17;4.60;99.90
10530;DHT22;5313;48.834;9.228;2023-11-22T11:28:46;3.70;99.90
10530;DHT22;5313;48.834;9.228;2023-11-22T11:31:16;3.50;99.90
10530;DHT22;5313;48.834;9.228;2023-11-22T11:38:47;3.60;99.90
10530;DHT22;5313;48.834;9.228;2023-11-22T11:41:15;3.50;99.90
10530;DHT22;5313;48.834;9.228;2023-11-22T11:43:43;3.70;99.90
10530;DHT22;5313;48.834;9.228;2023-11-22T11:46:10;3.70;99.90
10530;DHT22;5313;48.834;9.228;2023-11-22T11:48:36;3.70;99.90
10530;DHT22;5313;48.834;9.228;2023-11-22T11:51:01;3.70;99.90
10530;DHT22;5313;48.834;9.228;2023-11-22T11:53:27;3.70;99.90
10530;DHT22;5313;48.834;9.228;2023-11-22T11:55:54;3.60;99.90
10530;DHT22;5313;48.834;9.228;2023-11-22T11:58:19;3.60;99.90
10530;DHT22;5313;48.834;9.228;2023-11-22T12:00:45;3.60;99.90
10530;DHT22;5313;48.834;9.228;2023-11-22T12:03:11;3.60;99.90
10530;DHT22;5313;48.834;9.228;2023-11-22T12:05:38;3.60;99.90
10530;DHT22;5313;48.834;9.228;2023-11-22T12:08:03;3.70;99.90
10530;DHT22;5313;48.834;9.228;2023-11-22T12:10:29;3.80;99.90
10530;DHT22;5313;48.834;9.228;2023-11-22T12:12:55;3.70;99.90
10530;DHT22;5313;48.834;9.228;2023-11-22T12:15:21;3.70;99.90
10530;DHT22;5313;48.834;9.228;2023-11-22T12:17:48;3.70;99.90
10530;DHT22;5313;48.834;9.228;2023-11-22T12:20:16;3.60;99.90
10530;DHT22;5313;48.834;9.228;2023-11-22T12:22:47;3.60;99.90
10530;DHT22;5313;48.834;9.228;2023-11-22T12:25:13;3.70;99.90
10530;DHT22;5313;48.834;9.228;2023-11-22T12:27:43;3.70;99.90
10530;DHT22;5313;48.834;9.228;2023-11-22T12:30:30;3.80;99.90
10530;DHT22;5313;48.834;9.228;2023-11-22T12:33:06;3.70;99.90
10530;DHT22;5313;48.834;9.228;2023-11-22T12:35:35;3.80;99.90
10530;DHT22;5313;48.834;9.228;2023-11-22T12:38:02;3.70;99.90
10530;DHT22;5313;48.834;9.228;2023-11-22T12:40:31;3.60;99.90
10530;DHT22;5313;48.834;9.228;2023-11-22T12:42:57;3.60;99.90
10530;DHT22;5313;48.834;9.228;2023-11-22T12:45:23;3.60;99.90
10530;DHT22;5313;48.834;9.228;2023-11-22T12:47:52;3.70;99.90
10530;DHT22;5313;48.834;9.228;2023-11-22T12:50:38;3.60;99.90
10530;DHT22;5313;48.834;9.228;2023-11-22T12:53:11;3.80;99.90
10530;DHT22;5313;48.834;9.228;2023-11-22T12:55:41;3.80;99.90
10530;DHT22;5313;48.834;9.228;2023-11-22T12:58:07;3.80;99.90
10530;DHT22;5313;48.834;9.228;2023-11-22T13:00:33;3.70;99.90
10530;DHT22;5313;48.834;9.228;2023-11-22T13:02:59;3.70;99.90
10530;DHT22;5313;48.834;9.228;2023-11-22T13:05:25;3.70;99.90
10530;DHT22;5313;48.834;9.228;2023-11-22T13:07:50;3.70;99.90
10530;DHT22;5313;48.834;9.228;2023-11-22T13:10:17;3.70;99.90
10530;DHT22;5313;48.834;9.228;2023-11-22T13:12:43;3.60;99.90
10530;DHT22;5313;48.834;9.228;2023-11-22T13:15:14;3.60;99.90
10530;DHT22;5313;48.834;9.228;2023-11-22T13:17:40;3.60;99.90
10530;DHT22;5313;48.834;9.228;2023-11-22T13:20:09;3.50;99.90
10530;DHT22;5313;48.834;9.228;2023-11-22T13:22:41;3.60;99.90
10530;DHT22;5313;48.834;9.228;2023-11-22T13:25:08;3.50;99.90
10530;DHT22;5313;48.834;9.228;2023-11-22T13:27:36;3.60;99.90
10530;DHT22;5313;48.834;9.228;2023-11-22T13:30:02;3.60;99.90
10530;DHT22;5313;48.834;9.228;2023-11-22T13:32:29;3.60;99.90
10530;DHT22;5313;48.834;9.228;2023-11-22T13:34:55;3.60;99.90
10530;DHT22;5313;48.834;9.228;2023-11-22T13:37:25;3.60;99.90
10530;DHT22;5313;48.834;9.228;2023-11-22T13:39:50;3.50;99.90
10530;DHT22;5313;48.834;9.228;2023-11-22T13:42:16;3.60;99.90
10530;DHT22;5313;48.834;9.228;2023-11-22T13:44:42;3.60;99.90
10530;DHT22;5313;48.834;9.228;2023-11-22T13:47:10;3.60;99.90
10530;DHT22;5313;48.834;9.228;2023-11-22T13:49:35;3.60;99.90
10530;DHT22;5313;48.834;9.228;2023-11-22T13:52:02;3.50;99.90
10530;DHT22;5313;48.834;9.228;2023-11-22T13:54:28;3.50;99.90
10530;DHT22;5313;48.834;9.228;2023-11-22T13:56:53;3.50;99.90
10530;DHT22;5313;48.834;9.228;2023-11-22T13:59:19;3.50;99.90
10530;DHT22;5313;48.834;9.228;2023-11-22T14:01:45;3.60;99.90
10530;DHT22;5313;48.834;9.228;2023-11-22T14:04:11;3.50;99.90
10530;DHT22;5313;48.834;9.228;2023-11-22T14:06:36;3.60;99.90
10530;DHT22;5313;48.834;9.228;2023-11-22T14:09:02;3.70;99.90
10530;DHT22;5313;48.834;9.228;2023-11-22T14:11:28;3.70;99.90
10530;DHT22;5313;48.834;9.228;2023-11-22T14:13:55;3.60;99.90
10530;DHT22;5313;48.834;9.228;2023-11-22T14:16:20;3.60;99.90
10530;DHT22;5313;48.834;9.228;2023-11-22T14:18:46;3.60;99.90
10530;DHT22;5313;48.834;9.228;2023-11-22T14:21:11;3.50;99.90
10530;DHT22;5313;48.834;9.228;2023-11-22T14:23:37;3.50;99.90
10530;DHT22;5313;48.834;9.228;2023-11-22T14:26:03;3.50;99.90
10530;DHT22;5313;48.834;9.228;2023-11-22T14:28:28;3.60;99.90
10530;DHT22;5313;48.834;9.228;2023-11-22T14:30:55;3.60;99.90
10530;DHT22;5313;48.834;9.228;2023-11-22T14:33:21;3.60;99.90
10530;DHT22;5313;48.834;9.228;2023-11-22T14:35:47;3.60;99.90
10530;DHT22;5313;48.834;9.228;2023-11-22T14:38:12;3.60;99.90
10530;DHT22;5313;48.834;9.228;2023-11-22T14:40:39;3.60;99.90
10530;DHT22;5313;48.834;9.228;2023-11-22T14:43:05;3.60;99.90
10530;DHT22;5313;48.834;9.228;2023-11-22T14:45:31;3.50;99.90
10530;DHT22;5313;48.834;9.228;2023-11-22T14:47:58;3.50;99.90
10530;DHT22;5313;48.834;9.228;2023-11-22T14:50:24;3.50;99.90
10530;DHT22;5313;48.834;9.228;2023-11-22T14:52:53;3.60;99.90
10530;DHT22;5313;48.834;9.228;2023-11-22T14:55:19;3.60;99.90
10530;DHT22;5313;48.834;9.228;2023-11-22T14:57:46;3.60;99.90
10530;DHT22;5313;48.834;9.228;2023-11-22T15:00:13;3.60;99.90
10530;DHT22;5313;48.834;9.228;2023-11-22T15:02:40;3.60;99.90
10530;DHT22;5313;48.834;9.228;2023-11-22T15:05:08;3.60;99.90
10530;DHT22;5313;48.834;9.228;2023-11-22T15:07:35;3.60;99.90
10530;DHT22;5313;48.834;9.228;2023-11-22T15:10:01;3.70;99.90
10530;DHT22;5313;48.834;9.228;2023-11-22T15:12:29;3.60;99.90
10530;DHT22;5313;48.834;9.228;2023-11-22T15:14:56;3.60;99.90
10530;DHT22;5313;48.834;9.228;2023-11-22T15:17:22;3.70;99.90
10530;DHT22;5313;48.834;9.228;2023-11-22T15:19:47;3.60;99.90
10530;DHT22;5313;48.834;9.228;2023-11-22T15:22:13;3.70;99.90
10530;DHT22;5313;48.834;9.228;2023-11-22T15:24:39;3.70;99.90
10530;DHT22;5313;48.834;9.228;2023-11-22T15:27:04;3.60;99.90
10530;DHT22;5313;48.834;9.228;2023-11-22T15:29:30;3.70;99.90
10530;DHT22;5313;48.834;9.228;2023-11-22T15:31:57;3.60;99.90
10530;DHT22;5313;48.834;9.228;2023-11-22T15:34:23;3.60;99.90
10530;DHT22;5313;48.834;9.228;2023-11-22T15:36:48;3.60;99.90
10530;DHT22;5313;48.834;9.228;2023-11-22T15:39:14;3.60;99.90
10530;DHT22;5313;48.834;9.228;2023-11-22T15:41:43;3.50;99.90
10530;DHT22;5313;48.834;9.228;2023-11-22T15:44:09;3.50;99.90
10530;DHT22;5313;48.834;9.228;2023-11-22T15:46:35;3.50;99.90
10530;DHT22;5313;48.834;9.228;2023-11-22T15:49:00;3.50;99.90
10530;DHT22;5313;48.834;9.228;2023-11-22T15:51:26;3.60;99.90
10530;DHT22;5313;48.834;9.228;2023-11-22T15:53:52;3.60;99.90
10530;DHT22;5313;48.834;9.228;2023-11-22T15:56:17;3.60;99.90
10530;DHT22;5313;48.834;9.228;2023-11-22T15:58:46;3.60;99.90
10530;DHT22;5313;48.834;9.228;2023-11-22T16:01:12;3.50;99.90
10530;DHT22;5313;48.834;9.228;2023-11-22T16:03:38;3.50;99.90
10530;DHT22;5313;48.834;9.228;2023-11-22T16:06:05;3.60;99.90